Time;durP1;ratioP1;P1;durP2;ratioP2;P2;SDS_P1;SDS_P2;PMS_P1;PMS_P2;Temp;Humidity;BMP_temperature;BMP_pressure;BME280_temperature;BME280_humidity;BME280_pressure;Samples;Min_cycle;Max_cycle;Signal;HPM_P1;HPM_P2
2021/06/15 00:01:10;;;;;;;12.82;8.38;;;20.20;66.30;;;;;;5052554;28;20074;-36
2021/06/15 00:03:35;;;;;;;10.65;7.43;;;20.10;66.80;;;;;;5053846;28;20469;-36
2021/06/15 00:06:01;;;;;;;13.23;9.43;;;20.00;67.00;;;;;;5053739;28;20096;-36
2021/06/15 00:08:27;;;;;;;13.02;8.80;;;20.10;67.30;;;;;;5053907;28;20025;-37
2021/06/15 00:10:53;;;;;;;14.50;8.75;;;20.00;67.70;;;;;;5052522;28;20032;-36
2021/06/15 00:13:19;;;;;;;18.52;10.10;;;20.00;67.70;;;;;;5053678;28;20103;-37
2021/06/15 00:15:47;;;;;;;12.63;9.55;;;20.00;67.50;;;;;;5053613;28;20029;-35
2021/06/15 00:18:18;;;;;;;17.02;9.80;;;20.00;67.40;;;;;;5053963;28;20055;-35
2021/06/15 00:20:44;;;;;;;;;;;20.00;67.60;;;;;;5054794;28;20021;-35
2021/06/15 00:23:09;;;;;;;16.90;9.57;;;20.00;67.80;;;;;;5054392;28;19911;-35
2021/06/15 00:25:35;;;;;;;15.02;9.23;;;19.90;67.80;;;;;;5053067;28;20112;-36
2021/06/15 00:28:01;;;;;;;17.25;12.07;;;19.90;68.00;;;;;;5053998;28;20029;-35
2021/06/15 00:30:27;;;;;;;24.00;11.30;;;20.00;67.50;;;;;;5053980;28;20033;-35
2021/06/15 00:32:53;;;;;;;16.08;10.98;;;20.00;67.60;;;;;;5054799;28;20032;-35
2021/06/15 00:35:19;;;;;;;18.90;12.05;;;20.00;67.80;;;;;;5053788;28;20044;-35
2021/06/15 00:37:45;;;;;;;20.08;10.90;;;20.00;67.80;;;;;;5054143;28;20075;-35
2021/06/15 00:40:11;;;;;;;20.40;12.82;;;19.90;68.10;;;;;;5054687;28;20043;-38
2021/06/15 00:42:38;;;;;;;19.10;13.18;;;19.90;68.00;;;;;;5056511;28;20029;-37
2021/06/15 00:45:08;;;;;;;21.35;12.20;;;19.90;68.00;;;;;;5053448;28;20032;-37
2021/06/15 00:47:35;;;;;;;14.98;12.02;;;19.90;68.00;;;;;;5054028;28;20451;-35
2021/06/15 00:50:02;;;;;;;22.98;12.98;;;19.80;68.50;;;;;;5054683;28;20074;-35
2021/06/15 00:52:28;;;;;;;18.80;11.80;;;19.80;68.80;;;;;;5053984;28;20147;-35
2021/06/15 00:54:58;;;;;;;17.10;12.30;;;19.80;68.80;;;;;;5053822;28;20025;-37
2021/06/15 00:57:26;;;;;;;19.98;12.15;;;19.70;69.00;;;;;;5052349;28;20032;-36
2021/06/15 00:59:53;;;;;;;19.25;12.50;;;19.60;69.40;;;;;;5053491;28;20035;-37
2021/06/15 01:02:19;;;;;;;19.27;12.65;;;19.50;69.70;;;;;;5053003;28;20047;-37
2021/06/15 01:04:44;;;;;;;15.30;12.10;;;19.50;69.80;;;;;;5052803;28;20104;-37
2021/06/15 01:07:33;;;;;;;20.90;12.57;;;19.50;70.10;;;;;;5052162;28;20025;-37
2021/06/15 01:10:21;;;;;;;17.58;11.52;;;19.50;70.00;;;;;;5053178;28;20021;-37
2021/06/15 01:13:11;;;;;;;19.33;12.68;;;19.30;70.70;;;;;;5051357;28;20025;-37
2021/06/15 01:15:49;;;;;;;;;;;19.30;71.20;;;;;;5053705;28;20112;-37
2021/06/15 01:18:19;;;;;;;17.63;13.00;;;19.30;70.90;;;;;;5052722;28;19905;-37
2021/06/15 01:20:49;;;;;;;17.83;12.35;;;19.30;71.00;;;;;;5052699;28;20032;-37
2021/06/15 01:23:31;;;;;;;22.83;13.52;;;19.10;71.70;;;;;;5051382;28;20405;-37
2021/06/15 01:26:27;;;;;;;22.92;13.40;;;19.10;72.10;;;;;;5052623;28;20028;-36
2021/06/15 01:29:07;;;;;;;23.20;15.23;;;19.10;72.20;;;;;;5052709;28;20279;-35
2021/06/15 01:31:45;;;;;;;28.65;17.23;;;19.00;72.80;;;;;;5052901;28;20530;-35
2021/06/15 01:34:27;;;;;;;20.02;14.93;;;19.00;73.00;;;;;;5051024;28;20068;-35
2021/06/15 01:37:13;;;;;;;21.63;15.20;;;18.90;73.40;;;;;;5051254;28;20021;-35
2021/06/15 01:39:49;;;;;;;26.48;15.70;;;19.00;73.30;;;;;;5052828;28;20460;-35
2021/06/15 01:42:31;;;;;;;25.83;17.00;;;19.10;73.20;;;;;;5053937;28;20101;-35
2021/06/15 01:45:24;;;;;;;20.25;14.95;;;19.00;73.60;;;;;;5056279;28;20029;-35
2021/06/15 01:48:14;;;;;;;27.40;16.92;;;18.80;74.40;;;;;;5056229;28;20032;-35
2021/06/15 01:50:43;;;;;;;28.98;16.52;;;18.80;74.70;;;;;;5052014;28;20064;-36
2021/06/15 01:53:12;;;;;;;31.50;16.95;;;18.80;74.60;;;;;;5056084;28;20068;-35
2021/06/15 01:55:44;;;;;;;29.55;17.73;;;18.80;74.90;;;;;;5055788;28;20029;-36
2021/06/15 01:58:10;;;;;;;27.50;18.55;;;18.70;75.30;;;;;;5056631;28;20021;-36
2021/06/15 02:00:36;;;;;;;25.52;17.08;;;18.50;76.00;;;;;;5056213;28;20032;-36
2021/06/15 02:03:04;;;;;;;31.88;17.90;;;18.40;76.60;;;;;;5056093;28;20017;-36
2021/06/15 02:05:43;;;;;;;31.98;19.08;;;18.40;76.80;;;;;;5055817;28;20036;-36
2021/06/15 02:08:13;;;;;;;26.98;18.58;;;18.30;77.20;;;;;;5038013;28;20480;-36
2021/06/15 02:10:40;;;;;;;25.83;18.98;;;18.20;77.60;;;;;;5055784;28;20469;-36
2021/06/15 02:13:06;;;;;;;22.55;18.15;;;18.20;77.70;;;;;;5055754;28;20496;-36
2021/06/15 02:15:34;;;;;;;30.83;19.95;;;18.20;78.10;;;;;;5055696;28;20538;-36
2021/06/15 02:18:01;;;;;;;28.33;20.17;;;18.10;78.20;;;;;;5055824;28;20488;-41
2021/06/15 02:20:32;;;;;;;23.15;19.40;;;18.10;78.70;;;;;;5055782;28;20021;-36
2021/06/15 02:23:02;;;;;;;27.58;19.02;;;18.00;78.90;;;;;;5055822;28;20021;-36
2021/06/15 02:25:34;;;;;;;29.70;19.48;;;18.00;79.10;;;;;;5055566;28;20108;-36
2021/06/15 02:28:00;;;;;;;29.00;18.35;;;18.00;78.90;;;;;;5055782;28;20119;-35
2021/06/15 02:30:26;;;;;;;24.98;17.88;;;18.00;79.10;;;;;;5037513;28;20072;-35
2021/06/15 02:32:57;;;;;;;27.40;19.05;;;18.00;79.00;;;;;;5055730;28;20048;-36
2021/06/15 02:35:25;;;;;;;26.80;18.95;;;17.90;79.30;;;;;;5055333;28;20045;-35
2021/06/15 02:38:04;;;;;;;27.27;18.38;;;18.00;79.10;;;;;;5054042;28;20021;-36
2021/06/15 02:40:31;;;;;;;27.58;18.73;;;17.90;79.40;;;;;;5055381;28;20472;-36
2021/06/15 02:42:58;;;;;;;28.60;19.65;;;17.90;79.30;;;;;;5054156;28;20022;-36
2021/06/15 02:45:30;;;;;;;24.40;18.92;;;17.80;79.80;;;;;;5055498;28;20396;-36
2021/06/15 02:48:00;;;;;;;31.75;18.77;;;17.80;80.00;;;;;;5055496;28;20111;-36
2021/06/15 02:50:28;;;;;;;27.67;18.67;;;17.80;79.90;;;;;;5055443;28;20511;-36
2021/06/15 02:53:03;;;;;;;30.40;18.75;;;17.80;80.10;;;;;;5055313;28;20263;-36
2021/06/15 02:55:47;;;;;;;29.27;20.38;;;17.70;80.20;;;;;;5054831;28;20031;-36
2021/06/15 02:58:12;;;;;;;31.38;19.00;;;17.60;80.70;;;;;;5055595;28;20017;-36
2021/06/15 03:00:38;;;;;;;27.20;21.15;;;17.50;80.80;;;;;;5055108;28;20028;-36
2021/06/15 03:03:05;;;;;;;28.85;20.08;;;17.50;81.00;;;;;;5054880;28;20377;-36
2021/06/15 03:05:31;;;;;;;34.55;18.85;;;17.50;81.10;;;;;;5054724;28;20025;-36
2021/06/15 03:07:57;;;;;;;26.20;18.58;;;17.50;81.00;;;;;;5055109;28;20029;-36
2021/06/15 03:10:24;;;;;;;25.92;20.15;;;17.40;81.50;;;;;;5054677;28;20078;-36
2021/06/15 03:13:05;;;;;;;27.70;18.48;;;17.30;81.50;;;;;;5055453;28;20032;-36
2021/06/15 03:15:52;;;;;;;22.63;16.88;;;17.30;81.60;;;;;;5054919;28;20067;-36
2021/06/15 03:18:32;;;;;;;23.80;15.75;;;17.30;81.50;;;;;;5054609;28;20100;-37
2021/06/15 03:21:01;;;;;;;22.93;17.37;;;17.30;81.50;;;;;;5054695;28;20472;-37
2021/06/15 03:24:02;;;;;;;25.40;17.27;;;17.30;81.10;;;;;;5054394;28;20017;-36
2021/06/15 03:26:49;;;;;;;22.90;16.85;;;17.30;81.10;;;;;;5054656;28;20060;-36
2021/06/15 03:29:19;;;;;;;23.25;15.45;;;17.30;80.90;;;;;;5053101;28;20150;-36
2021/06/15 03:31:45;;;;;;;;;;;17.30;80.70;;;;;;5055068;28;20063;-36
2021/06/15 03:34:15;;;;;;;27.40;16.13;;;17.30;81.30;;;;;;5052758;28;20372;-36
2021/06/15 03:36:42;;;;;;;24.75;16.48;;;17.30;81.40;;;;;;5054596;28;20108;-36
2021/06/15 03:39:10;;;;;;;27.00;18.42;;;17.30;81.10;;;;;;5054181;28;20033;-36
2021/06/15 03:41:36;;;;;;;23.15;17.02;;;17.30;80.90;;;;;;5054400;28;20099;-36
2021/06/15 03:44:05;;;;;;;20.15;15.55;;;17.30;81.20;;;;;;5052908;28;20423;-36
2021/06/15 03:46:33;;;;;;;20.25;15.68;;;17.20;81.50;;;;;;5054082;28;20013;-36
2021/06/15 03:49:03;;;;;;;31.92;17.42;;;17.30;81.40;;;;;;5052764;28;20025;-36
2021/06/15 03:51:35;;;;;;;23.17;15.77;;;17.30;81.20;;;;;;5054290;28;20021;-36
2021/06/15 03:54:09;;;;;;;23.23;14.13;;;17.20;81.60;;;;;;5054080;28;20025;-36
2021/06/15 03:56:40;;;;;;;20.20;14.60;;;17.30;80.90;;;;;;5054307;28;20029;-36
2021/06/15 03:59:08;;;;;;;24.67;15.18;;;17.30;80.70;;;;;;5053935;28;20108;-36
2021/06/15 04:01:36;;;;;;;17.10;14.32;;;17.30;81.00;;;;;;5054205;28;20021;-36
2021/06/15 04:04:10;;;;;;;26.58;14.70;;;17.30;80.90;;;;;;5053768;28;20071;-35
2021/06/15 04:06:39;;;;;;;29.40;16.65;;;17.20;81.20;;;;;;5053777;28;20491;-36
2021/06/15 04:09:07;;;;;;;24.27;15.53;;;17.10;81.60;;;;;;5052193;28;20120;-36
2021/06/15 04:11:36;;;;;;;24.70;15.32;;;17.10;81.80;;;;;;5053559;28;20431;-36
2021/06/15 04:14:04;;;;;;;20.65;15.13;;;17.20;81.50;;;;;;5053992;28;20490;-46
2021/06/15 04:16:30;;;;;;;23.48;15.38;;;17.20;81.50;;;;;;5053761;28;20055;-36
2021/06/15 04:18:59;;;;;;;21.80;14.98;;;17.20;81.20;;;;;;5053671;28;20421;-35
2021/06/15 04:21:25;;;;;;;22.80;14.50;;;17.20;81.10;;;;;;5053546;28;20071;-36
2021/06/15 04:23:57;;;;;;;19.95;13.23;;;17.20;80.90;;;;;;5053737;28;20475;-36
2021/06/15 04:26:23;;;;;;;22.08;13.43;;;17.30;80.80;;;;;;5053864;28;20029;-36
2021/06/15 04:28:49;;;;;;;23.15;13.15;;;17.30;80.60;;;;;;5053438;28;20056;-36
2021/06/15 04:31:16;;;;;;;22.83;14.23;;;17.30;80.30;;;;;;5053932;28;20082;-36
2021/06/15 04:33:46;;;;;;;20.08;13.65;;;17.30;80.10;;;;;;5053317;28;20491;-36
2021/06/15 04:36:13;;;;;;;18.95;13.02;;;17.30;80.00;;;;;;5052469;28;20033;-35
2021/06/15 04:38:45;;;;;;;21.42;13.15;;;17.30;80.10;;;;;;5053640;28;20048;-36
2021/06/15 04:41:25;;;;;;;20.75;13.30;;;17.40;80.00;;;;;;5053675;28;20550;-35
2021/06/15 04:43:56;;;;;;;24.15;13.38;;;17.30;80.20;;;;;;5054129;28;20025;-36
2021/06/15 04:46:24;;;;;;;22.25;13.55;;;17.30;80.20;;;;;;5053609;28;20476;-36
2021/06/15 04:48:56;;;;;;;21.50;12.68;;;17.40;79.70;;;;;;5053220;28;20020;-35
2021/06/15 04:51:22;;;;;;;15.95;12.05;;;17.40;79.80;;;;;;5053955;28;20032;-36
2021/06/15 04:53:49;;;;;;;16.92;11.95;;;17.40;79.60;;;;;;5053347;28;20021;-36
2021/06/15 04:56:18;;;;;;;16.17;10.80;;;17.50;79.10;;;;;;5052135;28;20025;-37
2021/06/15 04:58:44;;;;;;;18.58;11.57;;;17.40;79.00;;;;;;5053313;28;20048;-37
2021/06/15 05:01:11;;;;;;;14.57;10.77;;;17.50;78.70;;;;;;5053282;28;20103;-36
2021/06/15 05:03:38;;;;;;;17.80;10.73;;;17.50;78.40;;;;;;5053165;28;20027;-36
2021/06/15 05:06:07;;;;;;;20.42;10.95;;;17.50;78.30;;;;;;5053442;28;20112;-36
2021/06/15 05:08:46;;;;;;;12.23;9.35;;;17.60;78.00;;;;;;5053103;28;20472;-36
2021/06/15 05:11:13;;;;;;;16.63;10.38;;;17.50;78.10;;;;;;5051880;28;20029;-36
2021/06/15 05:13:43;;;;;;;15.35;10.45;;;17.60;78.10;;;;;;5053096;28;20546;-36
2021/06/15 05:16:11;;;;;;;18.10;10.27;;;17.70;77.40;;;;;;5053589;28;20031;-36
2021/06/15 05:18:37;;;;;;;14.57;11.05;;;17.60;77.50;;;;;;5056280;28;20029;-36
2021/06/15 05:21:47;;;;;;;16.23;9.95;;;17.70;77.60;;;;;;5056788;28;20029;-43
2021/06/15 05:24:33;;;;;;;14.50;10.93;;;17.60;77.50;;;;;;5051045;28;20607;-36
2021/06/15 05:26:59;;;;;;;16.80;10.32;;;17.80;77.30;;;;;;5057115;28;20016;-36
2021/06/15 05:29:25;;;;;;;14.57;10.73;;;17.90;76.90;;;;;;5056691;28;20041;-36
2021/06/15 05:31:50;;;;;;;21.38;10.45;;;17.90;76.70;;;;;;5056409;28;20100;-36
2021/06/15 05:34:16;;;;;;;20.90;10.68;;;17.80;76.90;;;;;;5056612;28;20092;-36
2021/06/15 05:36:42;;;;;;;16.92;9.82;;;18.00;76.40;;;;;;5059256;28;20025;-36
2021/06/15 05:39:08;;;;;;;15.30;10.80;;;18.00;76.20;;;;;;5057290;28;20070;-36
2021/06/15 05:41:33;;;;;;;23.73;11.00;;;18.10;76.40;;;;;;5056583;28;20476;-35
2021/06/15 05:43:59;;;;;;;14.80;10.30;;;18.30;75.90;;;;;;5055893;28;20032;-36
2021/06/15 05:46:25;;;;;;;15.73;10.85;;;18.20;76.00;;;;;;5056357;28;20032;-36
2021/06/15 05:48:50;;;;;;;17.95;10.95;;;18.30;75.70;;;;;;5056557;28;20418;-36
2021/06/15 05:51:16;;;;;;;14.82;10.23;;;18.30;76.00;;;;;;5056102;28;20432;-36
2021/06/15 05:53:42;;;;;;;17.63;12.93;;;18.30;75.70;;;;;;5054845;28;20021;-36
2021/06/15 05:56:08;;;;;;;20.08;10.07;;;18.30;75.50;;;;;;5038397;28;20075;-36
2021/06/15 05:58:34;;;;;;;17.80;11.23;;;18.40;75.10;;;;;;5056481;28;20084;-36
2021/06/15 06:01:00;;;;;;;16.77;11.25;;;18.40;75.20;;;;;;5054198;28;20021;-35
2021/06/15 06:03:33;;;;;;;18.63;13.32;;;18.50;75.20;;;;;;5055601;28;20032;-36
2021/06/15 06:09:08;;;;;;;24.35;12.18;;;18.50;75.10;;;;;;5056127;28;20055;-35
2021/06/15 06:11:34;;;;;;;16.70;11.73;;;18.70;74.40;;;;;;5055920;28;20025;-38
2021/06/15 06:13:59;;;;;;;17.38;10.88;;;18.80;73.90;;;;;;5055572;28;20419;-35
2021/06/15 06:16:27;;;;;;;19.05;11.55;;;18.70;73.80;;;;;;5055439;28;20522;-36
2021/06/15 06:18:52;;;;;;;19.73;10.70;;;18.80;73.50;;;;;;5055650;28;20025;-36
2021/06/15 06:21:18;;;;;;;11.70;9.07;;;18.90;73.00;;;;;;5053991;28;20027;-35
2021/06/15 06:23:44;;;;;;;20.50;10.93;;;19.10;72.60;;;;;;5055232;28;20104;-36
2021/06/15 06:26:10;;;;;;;14.82;10.35;;;19.10;72.20;;;;;;5054967;28;20052;-36
2021/06/15 06:28:36;;;;;;;14.68;9.82;;;19.30;71.60;;;;;;5054511;28;20060;-35
2021/06/15 06:31:01;;;;;;;15.25;9.55;;;19.30;71.60;;;;;;5054241;28;20124;-35
2021/06/15 06:33:27;;;;;;;18.77;8.93;;;19.40;71.40;;;;;;5055317;28;20024;-36
2021/06/15 06:35:53;;;;;;;15.05;10.05;;;19.40;71.10;;;;;;5055407;28;20186;-36
2021/06/15 06:38:19;;;;;;;22.05;10.35;;;19.60;70.80;;;;;;5053527;28;20118;-36
2021/06/15 06:40:45;;;;;;;12.73;10.18;;;19.90;69.30;;;;;;5053536;28;20025;-38
2021/06/15 06:43:11;;;;;;;15.02;9.50;;;20.20;68.60;;;;;;5054911;28;20386;-36
2021/06/15 06:45:37;;;;;;;17.98;9.50;;;20.30;67.60;;;;;;5053692;28;20095;-35
2021/06/15 06:48:04;;;;;;;13.50;9.70;;;20.10;68.10;;;;;;5055123;28;20067;-35
2021/06/15 06:50:30;;;;;;;15.27;10.23;;;19.90;69.10;;;;;;5055781;28;20040;-37
2021/06/15 06:52:56;;;;;;;19.60;10.68;;;20.10;69.20;;;;;;5053297;28;20026;-35
2021/06/15 06:55:22;;;;;;;14.73;9.02;;;20.30;68.40;;;;;;5054793;28;20365;-35
2021/06/15 06:57:48;;;;;;;12.32;8.85;;;20.30;67.70;;;;;;5053858;28;20025;-36
2021/06/15 07:00:14;;;;;;;12.95;8.70;;;20.20;68.10;;;;;;5054940;28;20025;-41
2021/06/15 07:02:40;;;;;;;14.00;9.02;;;20.20;68.10;;;;;;5053166;28;20123;-35
2021/06/15 07:05:07;;;;;;;15.07;9.57;;;20.20;68.20;;;;;;5054691;28;20032;-38
2021/06/15 07:07:33;;;;;;;12.60;9.25;;;20.00;68.90;;;;;;5054577;28;20481;-36
2021/06/15 07:09:59;;;;;;;17.92;9.48;;;20.20;68.50;;;;;;5055130;28;20381;-36
2021/06/15 07:12:25;;;;;;;10.43;9.10;;;20.30;67.30;;;;;;5054914;28;20112;-35
2021/06/15 07:14:51;;;;;;;13.90;9.15;;;20.30;68.00;;;;;;5057103;28;20029;-36
2021/06/15 07:17:16;;;;;;;19.23;10.38;;;20.30;67.70;;;;;;5056602;28;20486;-35
2021/06/15 07:19:42;;;;;;;14.57;9.60;;;20.40;67.60;;;;;;5054288;28;20025;-36
2021/06/15 07:22:08;;;;;;;16.48;9.82;;;20.90;66.10;;;;;;5055514;28;20017;-35
2021/06/15 07:24:34;;;;;;;15.38;8.27;;;21.30;64.60;;;;;;5056645;28;20021;-34
2021/06/15 07:27:01;;;;;;;14.77;9.85;;;21.70;62.90;;;;;;5053677;28;20025;-35
2021/06/15 07:29:27;;;;;;;12.35;8.60;;;21.70;62.70;;;;;;5055570;28;20384;-34
2021/06/15 07:31:55;;;;;;;11.30;8.90;;;21.80;62.70;;;;;;5054665;28;20392;-36
2021/06/15 07:34:20;;;;;;;13.48;9.23;;;21.80;62.60;;;;;;5054008;28;20044;-40
2021/06/15 07:36:46;;;;;;;12.45;8.77;;;21.30;64.00;;;;;;5053843;28;20071;-35
2021/06/15 07:39:12;;;;;;;14.50;8.07;;;21.50;63.80;;;;;;5053797;28;20049;-33
2021/06/15 07:41:38;;;;;;;15.73;7.32;;;21.40;63.60;;;;;;5053764;28;20025;-38
2021/06/15 07:44:06;;;;;;;12.05;7.07;;;21.40;63.60;;;;;;5054317;28;20025;-34
2021/06/15 07:46:31;;;;;;;11.25;6.85;;;21.60;63.20;;;;;;5053609;28;20028;-37
2021/06/15 07:48:57;;;;;;;8.05;5.97;;;21.40;63.30;;;;;;5053476;28;20028;-44
2021/06/15 07:51:23;;;;;;;12.32;7.15;;;21.50;63.60;;;;;;5053735;28;20029;-37
2021/06/15 07:53:49;;;;;;;9.88;6.40;;;21.30;63.70;;;;;;5052648;28;20463;-38
2021/06/15 07:56:16;;;;;;;9.00;6.43;;;21.10;64.40;;;;;;5053763;28;20036;-35
2021/06/15 07:58:41;;;;;;;10.80;7.18;;;21.10;64.60;;;;;;5053640;28;20021;-40
2021/06/15 08:01:07;;;;;;;12.88;8.05;;;21.10;64.50;;;;;;5053480;28;20090;-41
2021/06/15 08:03:33;;;;;;;10.05;7.20;;;21.00;64.60;;;;;;5053549;28;20031;-41
2021/06/15 08:05:59;;;;;;;12.57;6.72;;;21.00;64.80;;;;;;5052924;28;20464;-38
2021/06/15 08:08:25;;;;;;;12.13;7.43;;;21.20;64.30;;;;;;5053602;28;20025;-38
2021/06/15 08:10:55;;;;;;;12.93;7.72;;;21.40;63.00;;;;;;5053564;28;20029;-39
2021/06/15 08:13:20;;;;;;;11.00;7.03;;;21.30;63.50;;;;;;5052599;28;20057;-44
2021/06/15 08:15:49;;;;;;;8.00;6.03;;;21.50;62.60;;;;;;5053656;28;20065;-40
2021/06/15 08:18:15;;;;;;;10.30;6.90;;;21.60;62.30;;;;;;5051083;28;20032;-43
2021/06/15 08:20:44;;;;;;;13.20;6.95;;;21.80;61.90;;;;;;5052483;28;20045;-41
2021/06/15 08:23:10;;;;;;;14.70;6.30;;;21.70;61.50;;;;;;5052661;28;20029;-40
2021/06/15 08:25:35;;;;;;;10.63;6.43;;;21.80;61.00;;;;;;5052805;28;20050;-39
2021/06/15 08:28:03;;;;;;;7.78;6.18;;;21.80;61.10;;;;;;5052773;28;20433;-40
2021/06/15 08:30:53;;;;;;;11.95;7.25;;;21.70;61.60;;;;;;5060201;28;20025;-43
2021/06/15 08:33:19;;;;;;;10.80;7.53;;;21.10;63.30;;;;;;5056813;28;20028;-41
2021/06/15 08:35:45;;;;;;;8.65;6.10;;;21.10;63.90;;;;;;5052019;28;20489;-44
2021/06/15 08:38:11;;;;;;;13.13;6.53;;;21.30;62.90;;;;;;5053530;28;20021;-43
2021/06/15 08:40:36;;;;;;;11.18;6.78;;;22.00;60.70;;;;;;5053052;28;20025;-36
2021/06/15 08:43:02;;;;;;;15.50;7.25;;;22.40;59.90;;;;;;5052940;28;20477;-37
2021/06/15 08:45:28;;;;;;;15.75;6.72;;;23.00;58.10;;;;;;5053220;28;20029;-36
2021/06/15 08:47:54;;;;;;;15.02;7.03;;;23.10;57.70;;;;;;5052369;28;20047;-35
2021/06/15 08:50:26;;;;;;;10.52;6.68;;;23.10;57.30;;;;;;5052805;28;20481;-36
2021/06/15 08:52:53;;;;;;;12.25;6.57;;;23.80;55.80;;;;;;5060319;28;20087;-36
2021/06/15 08:55:20;;;;;;;11.20;7.22;;;23.30;56.60;;;;;;5057644;28;20024;-36
2021/06/15 08:58:04;;;;;;;9.25;6.57;;;23.60;55.60;;;;;;5057421;28;20023;-35
2021/06/15 09:00:29;;;;;;;17.38;6.43;;;23.50;56.20;;;;;;5057490;28;20017;-36
2021/06/15 09:02:58;;;;;;;10.02;5.40;;;23.70;55.90;;;;;;5057292;28;20468;-36
2021/06/15 09:05:25;;;;;;;15.25;6.80;;;24.20;54.60;;;;;;5060758;28;20443;-35
2021/06/15 09:07:59;;;;;;;9.18;6.00;;;23.40;55.40;;;;;;5056474;28;20036;-36
2021/06/15 09:10:46;;;;;;;13.13;7.50;;;23.70;55.50;;;;;;5057107;28;20044;-36
2021/06/15 09:13:35;;;;;;;11.18;6.25;;;23.80;54.90;;;;;;5058066;28;20166;-37
2021/06/15 09:16:28;;;;;;;10.52;6.35;;;24.20;53.40;;;;;;5055463;28;20021;-36
2021/06/15 09:18:58;;;;;;;6.63;5.18;;;24.30;53.50;;;;;;5057012;28;20434;-36
2021/06/15 09:21:30;;;;;;;11.60;6.10;;;24.10;53.30;;;;;;5056815;28;20029;-37
2021/06/15 09:24:11;;;;;;;12.40;5.95;;;23.50;54.70;;;;;;5055020;28;20441;-36
2021/06/15 09:29:37;;;;;;;6.95;4.95;;;24.70;51.30;;;;;;5056238;28;20033;-35
2021/06/15 09:32:04;;;;;;;9.07;5.03;;;24.90;49.80;;;;;;5056505;28;20025;-36
2021/06/15 09:34:30;;;;;;;8.30;5.47;;;24.60;49.50;;;;;;5055808;28;20064;-35
2021/06/15 09:36:56;;;;;;;7.00;5.43;;;24.50;50.10;;;;;;5056034;28;20154;-35
2021/06/15 09:39:21;;;;;;;6.95;4.82;;;24.50;50.00;;;;;;5055969;28;20024;-37
2021/06/15 09:41:49;;;;;;;11.55;5.70;;;25.00;48.10;;;;;;5056328;28;20027;-36
2021/06/15 09:44:20;;;;;;;8.68;5.18;;;24.90;49.80;;;;;;5055904;28;20017;-36
2021/06/15 09:46:52;;;;;;;8.38;5.63;;;25.10;49.30;;;;;;5056186;28;20029;-36
2021/06/15 09:49:44;;;;;;;9.10;5.40;;;25.80;47.60;;;;;;5056387;28;20028;-36
2021/06/15 09:52:26;;;;;;;10.63;5.72;;;25.30;49.00;;;;;;5056043;28;20053;-36
2021/06/15 09:55:00;;;;;;;6.22;4.60;;;26.10;46.30;;;;;;5055905;28;20445;-36
2021/06/15 09:57:34;;;;;;;11.63;5.40;;;26.00;47.10;;;;;;5056066;28;20460;-35
2021/06/15 10:00:16;;;;;;;8.20;4.53;;;25.60;47.20;;;;;;5056946;28;20025;-35
2021/06/15 10:02:57;;;;;;;7.47;4.05;;;25.20;47.60;;;;;;5055262;28;20036;-35
2021/06/15 10:05:27;;;;;;;7.15;4.78;;;25.70;45.70;;;;;;5055442;28;20102;-40
2021/06/15 10:07:57;;;;;;;7.38;4.75;;;26.00;45.70;;;;;;5055514;28;20098;-35
2021/06/15 10:10:24;;;;;;;9.15;4.47;;;26.10;45.10;;;;;;5054519;28;20112;-36
2021/06/15 10:12:52;;;;;;;5.63;3.40;;;26.00;43.80;;;;;;5055401;28;20043;-35
2021/06/15 10:15:20;;;;;;;10.18;3.38;;;25.50;44.40;;;;;;5055550;28;20033;-36
2021/06/15 10:17:46;;;;;;;3.67;3.17;;;25.80;43.50;;;;;;5053765;28;20107;-36
2021/06/15 10:20:18;;;;;;;6.05;3.10;;;26.20;40.40;;;;;;5054160;28;20024;-36
2021/06/15 10:22:45;;;;;;;5.07;2.92;;;26.20;39.50;;;;;;5055430;28;20052;-36
2021/06/15 10:25:12;;;;;;;12.35;3.58;;;27.00;38.60;;;;;;5054641;28;20021;-36
2021/06/15 10:27:39;;;;;;;10.80;4.78;;;27.20;39.40;;;;;;5055365;28;20395;-36
2021/06/15 10:30:11;;;;;;;6.30;4.10;;;27.20;40.90;;;;;;5054728;28;20052;-38
2021/06/15 10:32:51;;;;;;;82.35;7.63;;;27.30;38.40;;;;;;5055528;28;20508;-35
2021/06/15 10:35:30;;;;;;;;;;;28.30;36.70;;;;;;5055104;28;20041;-36
2021/06/15 10:37:56;;;;;;;3.45;2.10;;;27.70;31.70;;;;;;5054896;28;19911;-35
2021/06/15 10:40:21;;;;;;;4.07;1.88;;;26.50;35.70;;;;;;5055080;28;20021;-35
2021/06/15 10:43:19;;;;;;;2.55;1.30;;;26.10;37.20;;;;;;5054527;28;20144;-36
2021/06/15 10:45:56;;;;;;;4.05;2.28;;;26.70;34.00;;;;;;5055009;28;20055;-36
2021/06/15 10:48:21;;;;;;;3.88;1.67;;;26.40;36.10;;;;;;5054703;28;20049;-36
2021/06/15 10:50:48;;;;;;;6.97;1.88;;;26.30;37.40;;;;;;5054861;28;20472;-36
2021/06/15 10:53:17;;;;;;;5.88;2.10;;;27.30;35.40;;;;;;5054773;28;20029;-35
2021/06/15 10:55:51;;;;;;;4.03;2.28;;;26.90;36.90;;;;;;5054898;28;20539;-35
2021/06/15 10:58:31;;;;;;;3.22;2.33;;;27.30;36.10;;;;;;5054749;28;20024;-36
2021/06/15 11:01:15;;;;;;;4.57;2.28;;;26.80;37.70;;;;;;5054857;28;20031;-35
2021/06/15 11:03:49;;;;;;;6.78;3.25;;;27.80;36.80;;;;;;5054781;28;20021;-35
2021/06/15 11:06:16;;;;;;;3.30;2.58;;;29.10;36.00;;;;;;5057843;28;20043;-35
2021/06/15 11:08:42;;;;;;;4.10;2.20;;;27.30;38.60;;;;;;5056308;28;20021;-36
2021/06/15 11:11:16;;;;;;;5.55;2.58;;;27.20;39.60;;;;;;5054912;28;20127;-36
2021/06/15 11:13:46;;;;;;;6.95;2.38;;;27.30;38.30;;;;;;5054423;28;20025;-35
2021/06/15 11:16:40;;;;;;;4.20;2.58;;;27.80;37.90;;;;;;5053960;28;20116;-36
2021/06/15 11:19:35;;;;;;;6.10;1.98;;;27.20;37.90;;;;;;5053449;28;20029;-36
2021/06/15 11:22:07;;;;;;;5.35;1.90;;;26.70;38.90;;;;;;5051576;28;20095;-37
2021/06/15 11:24:44;;;;;;;2.83;2.05;;;26.70;38.80;;;;;;5055185;28;20078;-36
2021/06/15 11:27:11;;;;;;;5.10;2.22;;;26.90;38.40;;;;;;5054707;28;20041;-35
2021/06/15 11:29:40;;;;;;;3.70;1.88;;;27.10;37.90;;;;;;5054532;28;20031;-36
2021/06/15 11:32:15;;;;;;;22.13;3.60;;;26.80;38.00;;;;;;5054459;28;20029;-35
2021/06/15 11:34:53;;;;;;;3.58;2.00;;;27.20;37.20;;;;;;5054139;28;20052;-35
2021/06/15 11:37:23;;;;;;;4.78;1.83;;;28.10;35.80;;;;;;5054415;28;20099;-35
2021/06/15 11:39:50;;;;;;;5.50;1.90;;;28.40;34.60;;;;;;5052236;28;20039;-36
2021/06/15 11:42:25;;;;;;;1.98;1.65;;;28.20;35.70;;;;;;5054105;28;20371;-35
2021/06/15 11:44:59;;;;;;;2.90;1.70;;;28.40;34.50;;;;;;5054205;28;20056;-35
2021/06/15 11:47:28;;;;;;;5.40;1.60;;;29.00;33.70;;;;;;5053948;28;20036;-36
2021/06/15 11:50:19;;;;;;;5.40;1.73;;;28.60;33.90;;;;;;5053650;28;20442;-36
2021/06/15 11:52:51;;;;;;;4.32;1.90;;;28.50;34.50;;;;;;5053451;28;20446;-35
2021/06/15 11:55:18;;;;;;;9.80;2.30;;;28.70;34.90;;;;;;5053584;28;20021;-35
2021/06/15 11:57:44;;;;;;;2.95;1.70;;;27.50;36.10;;;;;;5052354;28;20029;-35
2021/06/15 12:00:18;;;;;;;6.07;2.55;;;27.60;35.70;;;;;;5053557;28;20033;-35
2021/06/15 12:02:45;;;;;;;3.78;1.52;;;27.70;34.90;;;;;;5054277;28;20048;-38
2021/06/15 12:05:14;;;;;;;3.90;1.40;;;27.50;35.20;;;;;;5053282;28;20028;-35
2021/06/15 12:08:13;;;;;;;6.35;1.40;;;26.60;36.60;;;;;;5056150;28;20020;-35
2021/06/15 12:10:39;;;;;;;4.93;1.33;;;27.60;35.00;;;;;;5053894;28;20421;-36
2021/06/15 12:13:19;;;;;;;2.92;1.30;;;28.30;33.70;;;;;;5052609;28;20447;-36
2021/06/15 12:15:47;;;;;;;5.55;1.55;;;28.50;32.60;;;;;;5053447;28;20097;-35
2021/06/15 12:18:32;;;;;;;3.47;1.50;;;27.50;33.30;;;;;;5053938;28;20029;-36
2021/06/15 12:21:01;;;;;;;3.47;1.08;;;28.30;32.30;;;;;;5053349;28;20120;-35
2021/06/15 12:23:46;;;;;;;2.78;1.17;;;28.20;32.90;;;;;;5053416;28;20025;-34
2021/06/15 12:26:27;;;;;;;2.92;1.00;;;27.50;33.00;;;;;;5053535;28;20131;-36
2021/06/15 12:28:58;;;;;;;5.32;1.33;;;28.10;31.80;;;;;;5053465;28;20071;-37
2021/06/15 12:31:35;;;;;;;5.68;2.15;;;27.80;32.10;;;;;;5036258;28;20033;-37
2021/06/15 12:34:09;;;;;;;1.60;0.98;;;26.80;33.80;;;;;;5052384;28;21337;-37
2021/06/15 12:36:44;;;;;;;1.40;0.82;;;28.20;31.30;;;;;;5053046;28;20530;-37
2021/06/15 12:39:16;;;;;;;5.68;1.92;;;27.50;30.40;;;;;;5052213;28;20365;-35
2021/06/15 12:41:50;;;;;;;3.88;1.42;;;28.30;29.40;;;;;;5051964;28;20543;-37
2021/06/15 12:44:19;;;;;;;4.10;1.25;;;28.10;29.40;;;;;;5055895;28;20028;-37
2021/06/15 12:46:45;;;;;;;2.65;0.82;;;28.40;29.20;;;;;;5055720;28;20029;-36
2021/06/15 12:49:19;;;;;;;2.67;0.70;;;28.40;29.00;;;;;;5051491;28;20029;-36
2021/06/15 12:51:46;;;;;;;2.13;1.10;;;28.90;28.00;;;;;;5051665;28;20094;-36
2021/06/15 12:54:20;;;;;;;2.75;1.08;;;29.40;27.50;;;;;;5052878;28;20029;-35
2021/06/15 12:56:53;;;;;;;8.32;1.33;;;29.30;27.50;;;;;;5052986;28;20476;-36
2021/06/15 12:59:19;;;;;;;5.20;1.05;;;29.60;27.30;;;;;;5053579;28;20029;-38